Latest Coastal Weather Observations for Rhyll

IDV60701

Issued at 6:41 pm EST Thursday 28 July 2016 (issued every 10 minutes, with the page automatically refreshed every 10 minutes)

About coastal observations | Map of coastal stations | Coastal observations for VIC | Marine services | Other Formats
Station Details ID: 086373 Name: RHYLL Lat: -38.46 Lon: 145.31 Height: 13.4 m
Data from the previous 72 hours. | See also: Recent months at Rhyll
Date/Time
EST
Temp
°C
Wind Pressure Rain since
9am
mm
Weather Cloud Vis
km
Sea
Height
m
Swell
Dir  Spd
kts
Gust
kts
hPa Trend Height
m
Period
s
Dir
28/06:30pm 12.3 NW 6 11 1021.4 - 0.0 - - - - - - -
28/06:00pm 12.4 NW 3 8 1021.4 - 0.0 - - - - - - -
28/05:30pm 12.4 NW 3 7 1021.3 - 0.0 - - - - - - -
28/05:00pm 12.8 WNW 5 10 1021.2 - 0.0 - - - - - - -
28/04:30pm 13.5 W 8 13 1021.1 - 0.0 - - - - - - -
28/04:00pm 13.3 W 7 15 1021.2 - 0.0 - - - - - - -
28/03:30pm 13.3 WNW 6 14 1021.1 - 0.0 - - - - - - -
28/03:00pm 13.7 W 9 18 1020.9 - 0.0 - - - - - - -
28/02:30pm 13.5 WNW 6 15 1020.9 - 0.0 - - - - - - -
28/02:00pm 13.6 WNW 7 16 1020.9 - 0.0 - - - - - - -
28/01:30pm 13.3 NW 5 11 1021.1 - 0.0 - - - - - - -
28/01:00pm 13.2 WNW 7 13 1021.3 - 0.0 - - - - - - -
28/12:30pm 13.8 WNW 8 16 1021.5 - 0.0 - - - - - - -
28/12:00pm 12.7 WNW 6 13 1021.8 - 0.0 - - - - - - -
28/11:30am 13.2 NW 6 14 1022.0 - 0.0 - - - - - - -
28/11:00am 12.5 NW 7 16 1022.4 - 0.0 - - - - - - -
28/10:30am 11.7 WNW 6 13 1022.5 - 0.0 - - - - - - -
28/10:00am 11.2 WNW 7 13 1022.3 - 0.0 - - - - - - -
28/09:30am 11.3 NW 7 16 1022.3 - 0.0 - - - - - - -
28/09:00am 10.9 NW 6 12 1022.2 - 0.2 - - - - - - -
28/08:30am 10.4 NW 6 14 1021.9 - 0.2 - - - - - - -
28/08:00am 10.3 NW 6 15 1021.8 - 0.2 - - - - - - -
28/07:30am 10.2 WNW 8 13 1021.5 - 0.2 - - - - - - -
28/07:00am 10.2 WNW 6 13 1021.4 - 0.2 - - - - - - -
28/06:30am 10.1 WNW 8 15 1020.9 - 0.2 - - - - - - -
28/06:00am 10.1 WNW 7 15 1020.7 - 0.2 - - - - - - -
28/05:30am 10.1 WNW 7 15 1020.7 - 0.2 - - - - - - -
28/05:00am 10.3 W 8 13 1020.4 - 0.2 - - - - - - -
28/04:30am 10.2 WNW 8 15 1020.3 - 0.2 - - - - - - -
28/04:00am 10.1 WNW 7 15 1020.4 - 0.2 - - - - - - -
28/03:30am 10.1 WNW 8 14 1020.4 - 0.2 - - - - - - -
28/03:00am 9.9 WNW 7 12 1020.5 - 0.2 - - - - - - -
28/02:30am 9.7 WNW 6 12 1020.6 - 0.2 - - - - - - -
28/02:00am 9.6 WNW 5 11 1020.6 - 0.2 - - - - - - -
28/01:30am 9.5 WNW 5 10 1020.4 - 0.2 - - - - - - -
28/01:00am 9.6 WNW 6 13 1020.4 - 0.2 - - - - - - -
28/12:30am 9.4 NW 6 11 1020.4 - 0.2 - - - - - - -
28/12:00am 9.3 NW 6 11 1020.3 - 0.2 - - - - - - -
 
Date/Time
EST
Temp
°C
Wind Pressure Rain since
9am
mm
Weather Cloud Vis
km
Sea
Height
m
Swell
Dir  Spd
kts
Gust
kts
hPa Trend Height
m
Period
s
Dir
27/11:30pm 9.6 WNW 6 13 1020.5 - 0.2 - - - - - - -
27/11:00pm 9.6 WNW 6 11 1020.3 - 0.2 - - - - - - -
27/10:30pm 9.6 WNW 6 13 1020.1 - 0.2 - - - - - - -
27/10:00pm 9.6 WNW 7 14 1020.3 - 0.2 - - - - - - -
27/09:30pm 9.3 WNW 6 12 1020.1 - 0.2 - - - - - - -
27/09:00pm 9.5 WNW 5 12 1020.3 - 0.2 - - - - - - -
27/08:30pm 9.8 WNW 7 14 1020.3 - 0.2 - - - - - - -
27/08:00pm 10.1 WNW 7 12 1020.1 - 0.2 - - - - - - -
27/07:30pm 10.1 W 8 14 1019.8 - 0.2 - - - - - - -
27/07:00pm 10.2 WNW 7 15 1019.5 - 0.2 - - - - - - -
27/06:30pm 9.9 W 6 11 1019.0 - 0.2 - - - - - - -
27/06:00pm 10.2 WNW 6 13 1018.1 - 0.2 - - - - - - -
27/05:30pm 9.9 WNW 3 6 1017.7 - 0.2 - - - - - - -
27/05:00pm 9.8 W 5 9 1017.7 - 0.2 - - - - - - -
27/04:30pm 10.7 W 7 16 1017.5 - 0.2 - - - - - - -
27/04:00pm 10.7 W 8 17 1017.3 - 0.2 - - - - - - -
27/03:30pm 11.3 W 8 15 1016.9 - 0.2 - - - - - - -
27/03:00pm 10.8 W 11 20 1016.5 - 0.2 - - - - - - -
27/02:30pm 11.5 W 9 18 1015.8 - 0.2 - - - - - - -
27/02:00pm 10.9 W 6 11 1015.6 - 0.2 - - - - - - -
27/01:30pm 10.8 WSW 13 21 1015.2 - 0.2 - - - - - - -
27/01:00pm 11.4 WSW 9 16 1014.9 - 0.2 - - - - - - -
27/12:30pm 10.5 SW 9 15 1015.1 - 0.2 - - - - - - -
27/12:00pm 11.7 WSW 8 15 1014.6 - 0.0 - - - - - - -
27/11:30am 10.7 SW 9 18 1014.7 - 0.0 - - - - - - -
27/11:00am 11.1 SW 11 17 1014.2 - 0.0 - - - - - - -
27/10:30am 10.2 SW 9 16 1013.9 - 0.0 - - - - - - -
27/10:14am 10.1 SW 15 25 1013.7 - 0.0 - - - - - - -
27/10:00am 11.0 SW 9 14 1013.3 - 0.0 - - - - - - -
27/09:30am 10.3 SW 12 21 1012.8 - 0.0 - - - - - - -
27/09:00am 10.6 SW 10 17 1011.6 - 1.2 - - - - - - -
27/08:30am 10.7 SW 12 19 1010.8 - 1.2 - - - - - - -
27/08:00am 10.5 SW 12 20 1009.9 - 1.2 - - - - - - -
27/07:30am 9.9 SW 11 19 1009.0 - 1.2 - - - - - - -
27/07:00am 9.6 W 5 9 1008.0 - 0.2 - - - - - - -
27/06:30am 9.7 NW 5 10 1007.2 - 0.0 - - - - - - -
27/06:00am 9.9 WNW 6 13 1006.7 - 0.0 - - - - - - -
27/05:30am 9.7 NW 7 12 1006.3 - 0.0 - - - - - - -
27/05:00am 9.5 NW 9 15 1005.7 - 0.0 - - - - - - -
27/04:30am 9.6 NW 8 15 1005.3 - 0.0 - - - - - - -
27/04:00am 9.6 NNW 13 21 1005.0 - 0.0 - - - - - - -
27/03:30am 9.5 NNW 16 22 1004.9 - 0.0 - - - - - - -
27/03:00am 9.6 NNW 18 25 1004.6 - 0.0 - - - - - - -
27/02:30am 9.5 NNW 19 27 1004.6 - 0.0 - - - - - - -
27/02:00am 9.8 NNW 19 26 1004.5 - 0.0 - - - - - - -
27/01:30am 9.9 NNW 20 29 1004.4 - 0.0 - - - - - - -
27/01:17am 9.9 NNW 20 31 1004.4 - 0.0 - - - - - - -
27/01:00am 9.9 NNW 19 27 1004.6 - 0.0 - - - - - - -
27/12:30am 9.8 NNW 24 34 1004.4 - 0.0 - - - - - - -
27/12:00am 10.0 NNW 23 35 1004.6 - 0.0 - - - - - - -
 
Date/Time
EST
Temp
°C
Wind Pressure Rain since
9am
mm
Weather Cloud Vis
km
Sea
Height
m
Swell
Dir  Spd
kts
Gust
kts
hPa Trend Height
m
Period
s
Dir
26/11:52pm 10.1 NNW 23 33 1004.6 - 0.0 - - - - - - -
26/11:30pm 10.1 NNW 25 33 1004.5 - 0.0 - - - - - - -
26/11:00pm 9.8 NNW 26 33 1004.6 - 0.0 - - - - - - -
26/10:30pm 9.7 NNW 26 33 1004.8 - 0.0 - - - - - - -
26/10:05pm 9.7 NNW 25 35 1005.1 - 0.0 - - - - - - -
26/10:00pm 9.6 NNW 24 31 1005.1 - 0.0 - - - - - - -
26/09:30pm 9.5 NNW 25 31 1005.3 - 0.0 - - - - - - -
26/09:00pm 9.6 NNW 24 31 1005.7 - 0.0 - - - - - - -
26/08:30pm 9.7 NNW 24 30 1006.3 - 0.0 - - - - - - -
26/08:00pm 9.8 NNW 24 32 1006.3 - 0.0 - - - - - - -
26/07:30pm 9.5 NNW 21 30 1006.6 - 0.0 - - - - - - -
26/07:00pm 9.7 NNW 22 29 1006.7 - 0.0 - - - - - - -
26/06:30pm 9.8 NNW 23 29 1006.8 - 0.0 - - - - - - -
26/06:00pm 9.8 NNW 20 24 1007.0 - 0.0 - - - - - - -
26/05:30pm 9.9 NNW 20 26 1007.3 - 0.0 - - - - - - -
26/05:00pm 9.8 NNW 21 26 1007.3 - 0.0 - - - - - - -
26/04:30pm 9.9 NNW 16 22 1007.6 - 0.0 - - - - - - -
26/04:00pm 9.9 NNW 17 24 1007.9 - 0.0 - - - - - - -
26/03:30pm 9.7 NNW 19 27 1008.6 - 0.0 - - - - - - -
26/03:21pm 9.7 NNW 16 27 1008.7 - 0.0 - - - - - - -
26/03:00pm 9.6 NNW 17 25 1009.0 - 0.0 - - - - - - -
26/02:30pm 9.5 NNW 18 27 1009.2 - 0.0 - - - - - - -
26/02:00pm 9.4 NNW 21 30 1009.4 - 0.0 - - - - - - -
26/01:30pm 9.3 NNW 19 26 1009.7 - 0.0 - - - - - - -
26/01:00pm 9.5 NNW 17 28 1010.1 - 0.0 - - - - - - -
26/12:52pm 9.4 NW 15 28 1010.3 - 0.0 - - - - - - -
26/12:30pm 9.4 NW 12 22 1010.7 - 0.0 - - - - - - -
26/12:12pm 9.2 NNW 17 28 1010.8 - 0.0 - - - - - - -
26/12:00pm 9.2 NNW 19 26 1011.1 - 0.0 - - - - - - -
26/11:50am 9.0 NNW 18 30 1011.1 - 0.0 - - - - - - -
26/11:30am 8.8 NNW 17 24 1011.3 - 0.0 - - - - - - -
26/11:00am 9.2 NNW 16 23 1011.3 - 0.0 - - - - - - -
26/10:30am 9.1 NW 13 23 1011.1 - 0.0 - - - - - - -
26/10:00am 8.9 NW 12 24 1010.9 - 0.0 - - - - - - -
26/09:30am 9.0 NW 10 18 1011.0 - 0.0 - - - - - - -
26/09:00am 8.4 NW 10 19 1011.1 - 6.6 - - - - - - -
26/08:30am 8.0 NW 10 19 1010.8 - 6.6 - - - - - - -
26/08:00am 7.4 NW 8 16 1010.5 - 6.6 - - - - - - -
26/07:30am 7.4 NW 10 16 1010.0 - 6.6 - - - - - - -
26/07:00am 7.3 WNW 8 17 1010.0 - 6.6 - - - - - - -
26/06:30am 7.3 NW 8 16 1009.5 - 6.6 - - - - - - -
26/06:00am 7.5 NW 9 17 1009.1 - 6.6 - - - - - - -
26/05:30am 7.6 WNW 8 20 1008.9 - 6.6 - - - - - - -
26/05:00am 7.6 WNW 10 19 1008.5 - 6.6 - - - - - - -
26/04:30am 7.5 WNW 9 17 1007.9 - 6.6 - - - - - - -
26/04:00am 7.8 WNW 10 19 1007.6 - 6.6 - - - - - - -
26/03:30am 7.9 W 11 23 1007.7 - 6.6 - - - - - - -
26/03:00am 8.0 WNW 10 23 1007.4 - 6.6 - - - - - - -
26/02:30am 7.9 WNW 10 21 1007.1 - 6.6 - - - - - - -
26/02:00am 7.6 WNW 9 20 1006.9 - 6.6 - - - - - - -
26/01:30am 8.1 WNW 12 20 1006.6 - 6.6 - - - - - - -
26/01:00am 8.2 W 11 19 1006.7 - 6.6 - - - - - - -
26/12:30am 8.0 W 11 24 1006.6 - 6.6 - - - - - - -
26/12:00am 7.9 WNW 11 20 1006.1 - 6.6 - - - - - - -
 
Date/Time
EST
Temp
°C
Wind Pressure Rain since
9am
mm
Weather Cloud Vis
km
Sea
Height
m
Swell
Dir  Spd
kts
Gust
kts
hPa Trend Height
m
Period
s
Dir
25/11:30pm 8.3 WNW 13 23 1005.7 - 6.6 - - - - - - -
25/11:00pm 8.6 WNW 11 23 1005.3 - 6.6 - - - - - - -
25/10:30pm 8.8 W 14 25 1005.2 - 6.6 - - - - - - -
25/10:00pm 9.3 WNW 12 25 1004.8 - 6.6 - - - - - - -
25/09:30pm 9.2 W 12 19 1004.7 - 6.6 - - - - - - -
25/09:00pm 9.3 WNW 11 21 1004.3 - 6.6 Recent precip. - - - - - -
25/08:30pm 9.2 WNW 11 21 1003.7 - 6.6 - - - - - - -
25/08:00pm 8.6 W 15 28 1003.8 - 6.0 - - - - - - -
25/07:30pm 9.7 WNW 10 21 1002.8 - 5.6 - - - - - - -
25/07:00pm 9.3 NW 10 21 1002.0 - 5.6 - - - - - - -

Other Formats:

Comma delimited format used in spreadsheet applications
http://www.bom.gov.au/fwo/IDV60701/IDV60701.94892.axf

JavaScript Object Notation format (JSON) in row-major order
http://www.bom.gov.au/fwo/IDV60701/IDV60701.94892.json